sensor_id;sensor_type;location;lat;lon;timestamp;P1;durP1;ratioP1;P2;durP2;ratioP2
15454;SDS011;21057;51.024;7.540;2023-06-04T00:01:12;13.57;;;12.67;;
15454;SDS011;21057;51.024;7.540;2023-06-04T00:03:39;13.17;;;12.47;;
15454;SDS011;21057;51.024;7.540;2023-06-04T00:06:06;13.33;;;12.63;;
15454;SDS011;21057;51.024;7.540;2023-06-04T00:08:33;13.13;;;12.43;;
15454;SDS011;21057;51.024;7.540;2023-06-04T00:11:01;13.33;;;12.63;;
15454;SDS011;21057;51.024;7.540;2023-06-04T00:13:28;13.50;;;12.70;;
15454;SDS011;21057;51.024;7.540;2023-06-04T00:15:55;13.63;;;12.83;;
15454;SDS011;21057;51.024;7.540;2023-06-04T00:18:22;13.17;;;12.47;;
15454;SDS011;21057;51.024;7.540;2023-06-04T00:20:50;13.47;;;12.77;;
15454;SDS011;21057;51.024;7.540;2023-06-04T00:23:17;13.27;;;12.57;;
15454;SDS011;21057;51.024;7.540;2023-06-04T00:25:44;13.70;;;13.00;;
15454;SDS011;21057;51.024;7.540;2023-06-04T00:28:12;12.83;;;12.13;;
15454;SDS011;21057;51.024;7.540;2023-06-04T00:30:40;13.53;;;12.83;;
15454;SDS011;21057;51.024;7.540;2023-06-04T00:33:06;13.40;;;12.60;;
15454;SDS011;21057;51.024;7.540;2023-06-04T00:35:33;13.97;;;12.87;;
15454;SDS011;21057;51.024;7.540;2023-06-04T00:38:00;13.00;;;12.30;;
15454;SDS011;21057;51.024;7.540;2023-06-04T00:40:27;13.00;;;12.30;;
15454;SDS011;21057;51.024;7.540;2023-06-04T00:42:54;13.40;;;12.70;;
15454;SDS011;21057;51.024;7.540;2023-06-04T00:45:22;13.50;;;12.80;;
15454;SDS011;21057;51.024;7.540;2023-06-04T00:47:51;13.53;;;12.83;;
15454;SDS011;21057;51.024;7.540;2023-06-04T00:50:19;13.30;;;12.60;;
15454;SDS011;21057;51.024;7.540;2023-06-04T00:52:47;13.57;;;12.87;;
15454;SDS011;21057;51.024;7.540;2023-06-04T00:55:14;13.63;;;12.93;;
15454;SDS011;21057;51.024;7.540;2023-06-04T00:57:43;14.37;;;13.67;;
15454;SDS011;21057;51.024;7.540;2023-06-04T01:00:10;14.00;;;13.20;;
15454;SDS011;21057;51.024;7.540;2023-06-04T01:02:40;14.00;;;13.30;;
15454;SDS011;21057;51.024;7.540;2023-06-04T01:05:11;13.80;;;13.10;;
15454;SDS011;21057;51.024;7.540;2023-06-04T01:07:43;14.10;;;13.30;;
15454;SDS011;21057;51.024;7.540;2023-06-04T01:10:12;13.10;;;12.40;;
15454;SDS011;21057;51.024;7.540;2023-06-04T01:12:39;13.90;;;13.20;;
15454;SDS011;21057;51.024;7.540;2023-06-04T01:15:06;13.60;;;12.90;;
15454;SDS011;21057;51.024;7.540;2023-06-04T01:17:36;13.10;;;12.40;;
15454;SDS011;21057;51.024;7.540;2023-06-04T01:20:16;13.47;;;12.77;;
15454;SDS011;21057;51.024;7.540;2023-06-04T01:23:05;13.80;;;13.00;;
15454;SDS011;21057;51.024;7.540;2023-06-04T01:25:44;13.43;;;12.73;;
15454;SDS011;21057;51.024;7.540;2023-06-04T01:28:14;13.60;;;12.90;;
15454;SDS011;21057;51.024;7.540;2023-06-04T01:30:43;13.23;;;12.53;;
15454;SDS011;21057;51.024;7.540;2023-06-04T01:33:12;13.33;;;12.63;;
15454;SDS011;21057;51.024;7.540;2023-06-04T01:35:42;13.40;;;12.70;;
15454;SDS011;21057;51.024;7.540;2023-06-04T01:38:10;13.57;;;12.87;;
15454;SDS011;21057;51.024;7.540;2023-06-04T01:40:37;13.20;;;12.40;;
15454;SDS011;21057;51.024;7.540;2023-06-04T01:43:04;13.10;;;12.40;;
15454;SDS011;21057;51.024;7.540;2023-06-04T01:45:31;12.80;;;12.10;;
15454;SDS011;21057;51.024;7.540;2023-06-04T01:48:00;13.40;;;12.63;;
15454;SDS011;21057;51.024;7.540;2023-06-04T01:50:27;13.20;;;12.40;;
15454;SDS011;21057;51.024;7.540;2023-06-04T01:52:56;13.17;;;12.47;;
15454;SDS011;21057;51.024;7.540;2023-06-04T01:55:24;12.93;;;12.17;;
15454;SDS011;21057;51.024;7.540;2023-06-04T01:57:53;13.20;;;12.50;;
15454;SDS011;21057;51.024;7.540;2023-06-04T02:00:19;13.40;;;12.70;;
15454;SDS011;21057;51.024;7.540;2023-06-04T02:02:46;13.70;;;13.00;;
15454;SDS011;21057;51.024;7.540;2023-06-04T02:05:14;13.67;;;12.97;;
15454;SDS011;21057;51.024;7.540;2023-06-04T02:07:42;13.40;;;12.70;;
15454;SDS011;21057;51.024;7.540;2023-06-04T02:10:12;13.70;;;13.00;;
15454;SDS011;21057;51.024;7.540;2023-06-04T02:12:40;13.57;;;12.87;;
15454;SDS011;21057;51.024;7.540;2023-06-04T02:15:19;13.87;;;13.17;;
15454;SDS011;21057;51.024;7.540;2023-06-04T02:17:47;13.43;;;12.73;;
15454;SDS011;21057;51.024;7.540;2023-06-04T02:20:15;13.70;;;13.00;;
15454;SDS011;21057;51.024;7.540;2023-06-04T02:22:42;13.77;;;13.07;;
15454;SDS011;21057;51.024;7.540;2023-06-04T02:25:09;14.10;;;13.30;;
15454;SDS011;21057;51.024;7.540;2023-06-04T02:27:37;14.20;;;13.30;;
15454;SDS011;21057;51.024;7.540;2023-06-04T02:30:04;13.57;;;12.87;;
15454;SDS011;21057;51.024;7.540;2023-06-04T02:32:32;13.23;;;12.47;;
15454;SDS011;21057;51.024;7.540;2023-06-04T02:35:00;13.00;;;12.30;;
15454;SDS011;21057;51.024;7.540;2023-06-04T02:37:28;13.90;;;13.10;;
15454;SDS011;21057;51.024;7.540;2023-06-04T02:39:55;13.40;;;12.70;;
15454;SDS011;21057;51.024;7.540;2023-06-04T02:42:22;13.40;;;12.53;;
15454;SDS011;21057;51.024;7.540;2023-06-04T02:44:50;13.27;;;12.57;;
15454;SDS011;21057;51.024;7.540;2023-06-04T02:47:17;13.87;;;12.97;;
15454;SDS011;21057;51.024;7.540;2023-06-04T02:49:46;13.20;;;12.40;;
15454;SDS011;21057;51.024;7.540;2023-06-04T02:52:13;13.30;;;12.50;;
15454;SDS011;21057;51.024;7.540;2023-06-04T02:54:40;13.50;;;12.70;;
15454;SDS011;21057;51.024;7.540;2023-06-04T02:57:06;13.20;;;12.50;;
15454;SDS011;21057;51.024;7.540;2023-06-04T02:59:34;13.23;;;12.53;;
15454;SDS011;21057;51.024;7.540;2023-06-04T03:02:03;14.00;;;13.30;;
15454;SDS011;21057;51.024;7.540;2023-06-04T03:04:31;13.50;;;12.80;;
15454;SDS011;21057;51.024;7.540;2023-06-04T03:06:59;14.00;;;13.20;;
15454;SDS011;21057;51.024;7.540;2023-06-04T03:09:27;13.53;;;12.83;;
15454;SDS011;21057;51.024;7.540;2023-06-04T03:11:56;13.60;;;12.90;;
15454;SDS011;21057;51.024;7.540;2023-06-04T03:14:25;13.03;;;12.33;;
15454;SDS011;21057;51.024;7.540;2023-06-04T03:16:57;13.70;;;13.00;;
15454;SDS011;21057;51.024;7.540;2023-06-04T03:19:33;13.90;;;13.10;;
15454;SDS011;21057;51.024;7.540;2023-06-04T03:22:01;13.90;;;12.73;;
15454;SDS011;21057;51.024;7.540;2023-06-04T03:24:30;13.70;;;12.90;;
15454;SDS011;21057;51.024;7.540;2023-06-04T03:26:58;13.90;;;13.10;;
15454;SDS011;21057;51.024;7.540;2023-06-04T03:29:25;13.80;;;13.10;;
15454;SDS011;21057;51.024;7.540;2023-06-04T03:31:52;13.73;;;13.03;;
15454;SDS011;21057;51.024;7.540;2023-06-04T03:34:19;13.90;;;13.20;;
15454;SDS011;21057;51.024;7.540;2023-06-04T03:36:51;14.23;;;13.53;;
15454;SDS011;21057;51.024;7.540;2023-06-04T03:39:18;14.73;;;13.93;;
15454;SDS011;21057;51.024;7.540;2023-06-04T03:41:45;14.80;;;14.00;;
15454;SDS011;21057;51.024;7.540;2023-06-04T03:44:12;14.67;;;13.87;;
15454;SDS011;21057;51.024;7.540;2023-06-04T03:46:40;15.10;;;14.30;;
15454;SDS011;21057;51.024;7.540;2023-06-04T03:49:08;14.67;;;13.97;;
15454;SDS011;21057;51.024;7.540;2023-06-04T03:51:35;14.10;;;13.40;;
15454;SDS011;21057;51.024;7.540;2023-06-04T03:54:04;14.60;;;13.80;;
15454;SDS011;21057;51.024;7.540;2023-06-04T03:56:31;14.60;;;13.80;;
15454;SDS011;21057;51.024;7.540;2023-06-04T03:58:58;14.70;;;13.90;;
15454;SDS011;21057;51.024;7.540;2023-06-04T04:01:25;14.73;;;13.93;;
15454;SDS011;21057;51.024;7.540;2023-06-04T04:03:53;14.63;;;13.83;;
15454;SDS011;21057;51.024;7.540;2023-06-04T04:06:20;14.10;;;13.40;;
15454;SDS011;21057;51.024;7.540;2023-06-04T04:08:47;14.80;;;14.00;;
15454;SDS011;21057;51.024;7.540;2023-06-04T04:11:16;14.90;;;13.87;;
15454;SDS011;21057;51.024;7.540;2023-06-04T04:13:44;13.90;;;13.20;;
15454;SDS011;21057;51.024;7.540;2023-06-04T04:16:12;14.03;;;13.33;;
15454;SDS011;21057;51.024;7.540;2023-06-04T04:18:40;14.93;;;14.13;;
15454;SDS011;21057;51.024;7.540;2023-06-04T04:21:09;14.80;;;13.90;;
15454;SDS011;21057;51.024;7.540;2023-06-04T04:23:37;14.10;;;13.30;;
15454;SDS011;21057;51.024;7.540;2023-06-04T04:26:05;14.23;;;13.50;;
15454;SDS011;21057;51.024;7.540;2023-06-04T04:28:34;13.47;;;12.67;;
15454;SDS011;21057;51.024;7.540;2023-06-04T04:31:02;13.90;;;13.10;;
15454;SDS011;21057;51.024;7.540;2023-06-04T04:33:29;14.40;;;13.50;;
15454;SDS011;21057;51.024;7.540;2023-06-04T04:36:01;15.00;;;14.20;;
15454;SDS011;21057;51.024;7.540;2023-06-04T04:38:28;13.80;;;13.10;;
15454;SDS011;21057;51.024;7.540;2023-06-04T04:40:58;14.63;;;13.83;;
15454;SDS011;21057;51.024;7.540;2023-06-04T04:43:30;13.93;;;13.23;;
15454;SDS011;21057;51.024;7.540;2023-06-04T04:45:58;14.33;;;13.50;;
15454;SDS011;21057;51.024;7.540;2023-06-04T04:48:25;14.60;;;13.60;;
15454;SDS011;21057;51.024;7.540;2023-06-04T04:50:52;14.90;;;13.93;;
15454;SDS011;21057;51.024;7.540;2023-06-04T04:53:19;15.43;;;14.43;;
15454;SDS011;21057;51.024;7.540;2023-06-04T04:55:46;15.20;;;14.40;;
15454;SDS011;21057;51.024;7.540;2023-06-04T04:58:14;15.47;;;14.57;;
15454;SDS011;21057;51.024;7.540;2023-06-04T05:00:41;15.30;;;14.50;;
15454;SDS011;21057;51.024;7.540;2023-06-04T05:03:09;15.40;;;14.50;;
15454;SDS011;21057;51.024;7.540;2023-06-04T05:05:37;15.60;;;14.70;;
15454;SDS011;21057;51.024;7.540;2023-06-04T05:08:04;15.37;;;14.47;;
15454;SDS011;21057;51.024;7.540;2023-06-04T05:10:31;15.50;;;14.60;;
15454;SDS011;21057;51.024;7.540;2023-06-04T05:13:01;14.23;;;13.43;;
15454;SDS011;21057;51.024;7.540;2023-06-04T05:15:29;15.20;;;14.20;;
15454;SDS011;21057;51.024;7.540;2023-06-04T05:17:56;14.63;;;13.80;;
15454;SDS011;21057;51.024;7.540;2023-06-04T05:20:27;14.57;;;13.77;;
15454;SDS011;21057;51.024;7.540;2023-06-04T05:22:54;15.03;;;14.13;;
15454;SDS011;21057;51.024;7.540;2023-06-04T05:25:22;14.93;;;14.13;;
15454;SDS011;21057;51.024;7.540;2023-06-04T05:27:49;14.73;;;13.93;;
15454;SDS011;21057;51.024;7.540;2023-06-04T05:30:16;14.47;;;13.67;;
15454;SDS011;21057;51.024;7.540;2023-06-04T05:32:43;14.83;;;13.97;;
15454;SDS011;21057;51.024;7.540;2023-06-04T05:35:10;14.63;;;13.83;;
15454;SDS011;21057;51.024;7.540;2023-06-04T05:37:38;14.50;;;13.70;;
15454;SDS011;21057;51.024;7.540;2023-06-04T05:40:07;14.50;;;13.70;;
15454;SDS011;21057;51.024;7.540;2023-06-04T05:42:35;14.47;;;13.67;;
15454;SDS011;21057;51.024;7.540;2023-06-04T05:45:03;14.77;;;13.98;;
15454;SDS011;21057;51.024;7.540;2023-06-04T05:47:33;14.70;;;13.73;;
15454;SDS011;21057;51.024;7.540;2023-06-04T05:50:00;14.68;;;13.88;;
15454;SDS011;21057;51.024;7.540;2023-06-04T05:52:27;15.32;;;14.27;;
15454;SDS011;21057;51.024;7.540;2023-06-04T05:54:55;14.30;;;13.43;;
15454;SDS011;21057;51.024;7.540;2023-06-04T05:57:22;14.63;;;13.82;;
15454;SDS011;21057;51.024;7.540;2023-06-04T05:59:50;14.48;;;13.68;;
15454;SDS011;21057;51.024;7.540;2023-06-04T06:02:17;14.65;;;13.85;;
15454;SDS011;21057;51.024;7.540;2023-06-04T06:04:44;14.65;;;13.85;;
15454;SDS011;21057;51.024;7.540;2023-06-04T06:07:11;14.93;;;14.05;;
15454;SDS011;21057;51.024;7.540;2023-06-04T06:09:38;14.90;;;14.07;;
15454;SDS011;21057;51.024;7.540;2023-06-04T06:12:06;15.30;;;14.40;;
15454;SDS011;21057;51.024;7.540;2023-06-04T06:14:33;14.40;;;13.60;;
15454;SDS011;21057;51.024;7.540;2023-06-04T06:17:00;15.25;;;14.35;;
15454;SDS011;21057;51.024;7.540;2023-06-04T06:19:28;14.50;;;13.70;;
15454;SDS011;21057;51.024;7.540;2023-06-04T06:21:55;15.20;;;14.30;;
15454;SDS011;21057;51.024;7.540;2023-06-04T06:24:23;15.13;;;14.23;;
15454;SDS011;21057;51.024;7.540;2023-06-04T06:26:50;14.93;;;14.13;;
15454;SDS011;21057;51.024;7.540;2023-06-04T06:29:18;15.20;;;14.40;;
15454;SDS011;21057;51.024;7.540;2023-06-04T06:31:45;15.00;;;14.10;;
15454;SDS011;21057;51.024;7.540;2023-06-04T06:34:12;14.93;;;14.13;;
15454;SDS011;21057;51.024;7.540;2023-06-04T06:36:39;15.45;;;14.55;;
15454;SDS011;21057;51.024;7.540;2023-06-04T06:39:06;14.82;;;13.95;;
15454;SDS011;21057;51.024;7.540;2023-06-04T06:41:33;14.82;;;14.02;;
15454;SDS011;21057;51.024;7.540;2023-06-04T06:44:00;14.98;;;14.02;;
15454;SDS011;21057;51.024;7.540;2023-06-04T06:46:29;14.63;;;13.82;;
15454;SDS011;21057;51.024;7.540;2023-06-04T06:48:56;14.95;;;14.02;;
15454;SDS011;21057;51.024;7.540;2023-06-04T06:51:23;14.90;;;14.00;;
15454;SDS011;21057;51.024;7.540;2023-06-04T06:53:50;14.88;;;14.07;;
15454;SDS011;21057;51.024;7.540;2023-06-04T06:56:17;15.63;;;14.68;;
15454;SDS011;21057;51.024;7.540;2023-06-04T06:58:44;14.93;;;14.13;;
15454;SDS011;21057;51.024;7.540;2023-06-04T07:01:11;15.25;;;14.40;;
15454;SDS011;21057;51.024;7.540;2023-06-04T07:03:42;14.82;;;13.98;;
15454;SDS011;21057;51.024;7.540;2023-06-04T07:06:09;15.30;;;14.40;;
15454;SDS011;21057;51.024;7.540;2023-06-04T07:08:36;14.70;;;13.90;;
15454;SDS011;21057;51.024;7.540;2023-06-04T07:11:03;14.75;;;13.85;;
15454;SDS011;21057;51.024;7.540;2023-06-04T07:13:30;14.70;;;13.80;;
15454;SDS011;21057;51.024;7.540;2023-06-04T07:16:00;14.82;;;13.98;;
15454;SDS011;21057;51.024;7.540;2023-06-04T07:18:27;14.90;;;14.10;;
15454;SDS011;21057;51.024;7.540;2023-06-04T07:20:55;15.07;;;14.27;;
15454;SDS011;21057;51.024;7.540;2023-06-04T07:23:23;14.98;;;14.07;;
15454;SDS011;21057;51.024;7.540;2023-06-04T07:25:50;15.18;;;14.38;;
15454;SDS011;21057;51.024;7.540;2023-06-04T07:28:17;15.52;;;14.63;;
15454;SDS011;21057;51.024;7.540;2023-06-04T07:30:44;15.40;;;14.50;;
15454;SDS011;21057;51.024;7.540;2023-06-04T07:33:12;15.07;;;14.27;;
15454;SDS011;21057;51.024;7.540;2023-06-04T07:35:38;15.23;;;14.43;;
15454;SDS011;21057;51.024;7.540;2023-06-04T07:38:07;15.30;;;14.50;;
15454;SDS011;21057;51.024;7.540;2023-06-04T07:40:34;15.50;;;14.60;;
15454;SDS011;21057;51.024;7.540;2023-06-04T07:43:00;16.05;;;14.95;;
15454;SDS011;21057;51.024;7.540;2023-06-04T07:45:27;14.93;;;14.13;;
15454;SDS011;21057;51.024;7.540;2023-06-04T07:47:55;15.38;;;14.57;;
15454;SDS011;21057;51.024;7.540;2023-06-04T07:50:22;15.35;;;14.45;;
15454;SDS011;21057;51.024;7.540;2023-06-04T07:52:49;16.58;;;15.60;;
15454;SDS011;21057;51.024;7.540;2023-06-04T07:55:18;16.52;;;15.63;;
15454;SDS011;21057;51.024;7.540;2023-06-04T07:57:45;16.33;;;15.38;;
15454;SDS011;21057;51.024;7.540;2023-06-04T08:00:12;15.50;;;14.70;;
15454;SDS011;21057;51.024;7.540;2023-06-04T08:02:40;15.45;;;14.35;;
15454;SDS011;21057;51.024;7.540;2023-06-04T08:05:08;15.23;;;14.43;;
15454;SDS011;21057;51.024;7.540;2023-06-04T08:07:35;15.10;;;14.10;;
15454;SDS011;21057;51.024;7.540;2023-06-04T08:10:02;15.38;;;14.55;;
15454;SDS011;21057;51.024;7.540;2023-06-04T08:12:30;15.50;;;14.57;;
15454;SDS011;21057;51.024;7.540;2023-06-04T08:14:57;15.25;;;14.45;;
15454;SDS011;21057;51.024;7.540;2023-06-04T08:17:24;15.52;;;14.63;;
15454;SDS011;21057;51.024;7.540;2023-06-04T08:19:51;15.75;;;14.85;;
15454;SDS011;21057;51.024;7.540;2023-06-04T08:22:17;16.45;;;15.45;;
15454;SDS011;21057;51.024;7.540;2023-06-04T08:24:44;15.27;;;14.38;;
15454;SDS011;21057;51.024;7.540;2023-06-04T08:27:11;15.88;;;15.00;;
15454;SDS011;21057;51.024;7.540;2023-06-04T08:29:40;15.10;;;14.20;;
15454;SDS011;21057;51.024;7.540;2023-06-04T08:32:07;15.65;;;14.50;;
15454;SDS011;21057;51.024;7.540;2023-06-04T08:34:33;15.98;;;15.07;;
15454;SDS011;21057;51.024;7.540;2023-06-04T08:37:00;15.70;;;14.70;;
15454;SDS011;21057;51.024;7.540;2023-06-04T08:39:27;16.02;;;15.02;;
15454;SDS011;21057;51.024;7.540;2023-06-04T08:41:56;16.05;;;15.07;;
15454;SDS011;21057;51.024;7.540;2023-06-04T08:44:51;16.15;;;15.25;;
15454;SDS011;21057;51.024;7.540;2023-06-04T08:47:24;16.45;;;15.35;;
15454;SDS011;21057;51.024;7.540;2023-06-04T08:50:10;15.65;;;14.75;;
15454;SDS011;21057;51.024;7.540;2023-06-04T08:52:52;15.68;;;14.80;;
15454;SDS011;21057;51.024;7.540;2023-06-04T08:55:20;15.43;;;14.63;;
15454;SDS011;21057;51.024;7.540;2023-06-04T08:57:47;15.15;;;14.25;;
15454;SDS011;21057;51.024;7.540;2023-06-04T09:00:17;15.48;;;14.57;;
15454;SDS011;21057;51.024;7.540;2023-06-04T09:02:45;15.35;;;14.45;;
15454;SDS011;21057;51.024;7.540;2023-06-04T09:05:16;15.07;;;14.18;;
15454;SDS011;21057;51.024;7.540;2023-06-04T09:07:46;15.85;;;14.90;;
15454;SDS011;21057;51.024;7.540;2023-06-04T09:10:15;15.48;;;14.57;;
15454;SDS011;21057;51.024;7.540;2023-06-04T09:12:47;15.88;;;14.90;;
15454;SDS011;21057;51.024;7.540;2023-06-04T09:15:15;15.77;;;14.98;;
15454;SDS011;21057;51.024;7.540;2023-06-04T09:17:43;15.63;;;14.82;;
15454;SDS011;21057;51.024;7.540;2023-06-04T09:20:18;15.30;;;14.40;;
15454;SDS011;21057;51.024;7.540;2023-06-04T09:22:45;15.50;;;14.60;;
15454;SDS011;21057;51.024;7.540;2023-06-04T09:25:18;15.23;;;14.32;;
15454;SDS011;21057;51.024;7.540;2023-06-04T09:27:47;15.98;;;15.05;;
15454;SDS011;21057;51.024;7.540;2023-06-04T09:30:14;16.33;;;15.43;;
15454;SDS011;21057;51.024;7.540;2023-06-04T09:32:41;16.50;;;15.50;;
15454;SDS011;21057;51.024;7.540;2023-06-04T09:35:09;17.05;;;15.60;;
15454;SDS011;21057;51.024;7.540;2023-06-04T09:37:38;16.30;;;15.40;;
15454;SDS011;21057;51.024;7.540;2023-06-04T09:40:06;16.80;;;15.90;;
15454;SDS011;21057;51.024;7.540;2023-06-04T09:42:43;15.18;;;14.32;;
15454;SDS011;21057;51.024;7.540;2023-06-04T09:45:10;16.67;;;15.27;;
15454;SDS011;21057;51.024;7.540;2023-06-04T09:47:38;16.13;;;15.23;;
15454;SDS011;21057;51.024;7.540;2023-06-04T09:50:07;15.95;;;15.05;;
15454;SDS011;21057;51.024;7.540;2023-06-04T09:52:36;16.02;;;15.13;;
15454;SDS011;21057;51.024;7.540;2023-06-04T09:55:14;15.82;;;15.00;;
15454;SDS011;21057;51.024;7.540;2023-06-04T09:57:44;16.27;;;15.15;;
15454;SDS011;21057;51.024;7.540;2023-06-04T10:00:13;15.93;;;14.98;;
15454;SDS011;21057;51.024;7.540;2023-06-04T10:02:43;15.70;;;14.80;;
15454;SDS011;21057;51.024;7.540;2023-06-04T10:05:13;15.90;;;14.90;;
15454;SDS011;21057;51.024;7.540;2023-06-04T10:07:41;16.40;;;15.50;;
15454;SDS011;21057;51.024;7.540;2023-06-04T10:10:11;16.55;;;15.50;;
15454;SDS011;21057;51.024;7.540;2023-06-04T10:12:41;16.58;;;15.63;;
15454;SDS011;21057;51.024;7.540;2023-06-04T10:15:10;16.75;;;15.65;;
15454;SDS011;21057;51.024;7.540;2023-06-04T10:17:38;15.68;;;14.80;;
15454;SDS011;21057;51.024;7.540;2023-06-04T10:20:06;15.70;;;14.77;;
15454;SDS011;21057;51.024;7.540;2023-06-04T10:22:37;15.55;;;14.65;;
15454;SDS011;21057;51.024;7.540;2023-06-04T10:25:04;15.02;;;14.23;;
15454;SDS011;21057;51.024;7.540;2023-06-04T10:27:32;16.02;;;15.13;;
15454;SDS011;21057;51.024;7.540;2023-06-04T10:30:00;15.85;;;15.00;;
15454;SDS011;21057;51.024;7.540;2023-06-04T10:32:28;15.70;;;14.70;;
15454;SDS011;21057;51.024;7.540;2023-06-04T10:34:55;16.52;;;15.57;;
15454;SDS011;21057;51.024;7.540;2023-06-04T10:37:24;16.10;;;15.18;;
15454;SDS011;21057;51.024;7.540;2023-06-04T10:39:53;16.70;;;15.73;;
15454;SDS011;21057;51.024;7.540;2023-06-04T10:42:23;16.88;;;15.88;;
15454;SDS011;21057;51.024;7.540;2023-06-04T10:44:52;16.17;;;15.27;;
15454;SDS011;21057;51.024;7.540;2023-06-04T10:47:21;16.17;;;15.27;;
15454;SDS011;21057;51.024;7.540;2023-06-04T10:49:49;16.40;;;15.50;;
15454;SDS011;21057;51.024;7.540;2023-06-04T10:52:16;16.42;;;15.52;;
15454;SDS011;21057;51.024;7.540;2023-06-04T10:54:44;16.63;;;15.48;;
15454;SDS011;21057;51.024;7.540;2023-06-04T10:57:15;15.98;;;15.07;;
15454;SDS011;21057;51.024;7.540;2023-06-04T10:59:53;16.08;;;15.18;;
15454;SDS011;21057;51.024;7.540;2023-06-04T11:02:20;16.42;;;15.45;;
15454;SDS011;21057;51.024;7.540;2023-06-04T11:04:47;16.45;;;15.25;;
15454;SDS011;21057;51.024;7.540;2023-06-04T11:07:24;15.50;;;14.60;;
15454;SDS011;21057;51.024;7.540;2023-06-04T11:09:51;15.98;;;15.07;;
15454;SDS011;21057;51.024;7.540;2023-06-04T11:12:20;14.88;;;14.07;;
15454;SDS011;21057;51.024;7.540;2023-06-04T11:14:53;14.90;;;14.00;;
15454;SDS011;21057;51.024;7.540;2023-06-04T11:17:21;15.13;;;14.27;;
15454;SDS011;21057;51.024;7.540;2023-06-04T11:19:48;15.45;;;14.45;;
15454;SDS011;21057;51.024;7.540;2023-06-04T11:22:20;15.65;;;14.85;;
15454;SDS011;21057;51.024;7.540;2023-06-04T11:24:47;16.05;;;15.05;;
15454;SDS011;21057;51.024;7.540;2023-06-04T11:27:14;16.38;;;15.40;;
15454;SDS011;21057;51.024;7.540;2023-06-04T11:29:42;16.10;;;15.20;;
15454;SDS011;21057;51.024;7.540;2023-06-04T11:32:09;16.05;;;15.15;;
15454;SDS011;21057;51.024;7.540;2023-06-04T11:34:36;16.05;;;15.10;;
15454;SDS011;21057;51.024;7.540;2023-06-04T11:37:09;16.95;;;15.38;;
15454;SDS011;21057;51.024;7.540;2023-06-04T11:39:36;16.85;;;15.77;;
15454;SDS011;21057;51.024;7.540;2023-06-04T11:42:05;15.77;;;14.88;;
15454;SDS011;21057;51.024;7.540;2023-06-04T11:44:33;16.00;;;15.10;;
15454;SDS011;21057;51.024;7.540;2023-06-04T11:47:01;15.45;;;14.65;;
15454;SDS011;21057;51.024;7.540;2023-06-04T11:49:31;16.25;;;15.25;;
15454;SDS011;21057;51.024;7.540;2023-06-04T11:52:00;15.98;;;15.07;;
15454;SDS011;21057;51.024;7.540;2023-06-04T11:54:28;15.50;;;14.70;;
15454;SDS011;21057;51.024;7.540;2023-06-04T11:56:55;16.42;;;15.52;;
15454;SDS011;21057;51.024;7.540;2023-06-04T11:59:23;16.40;;;15.50;;
15454;SDS011;21057;51.024;7.540;2023-06-04T12:01:50;16.75;;;15.75;;
15454;SDS011;21057;51.024;7.540;2023-06-04T12:04:21;16.88;;;15.88;;
15454;SDS011;21057;51.024;7.540;2023-06-04T12:06:51;16.75;;;15.85;;
15454;SDS011;21057;51.024;7.540;2023-06-04T12:09:22;16.17;;;15.27;;
15454;SDS011;21057;51.024;7.540;2023-06-04T12:11:49;16.02;;;15.13;;
15454;SDS011;21057;51.024;7.540;2023-06-04T12:14:17;16.63;;;15.73;;
15454;SDS011;21057;51.024;7.540;2023-06-04T12:16:53;16.17;;;15.27;;
15454;SDS011;21057;51.024;7.540;2023-06-04T12:19:22;16.35;;;15.45;;
15454;SDS011;21057;51.024;7.540;2023-06-04T12:21:58;16.63;;;15.57;;
15454;SDS011;21057;51.024;7.540;2023-06-04T12:24:27;16.20;;;15.30;;
15454;SDS011;21057;51.024;7.540;2023-06-04T12:27:00;16.40;;;15.48;;
15454;SDS011;21057;51.024;7.540;2023-06-04T12:29:29;16.30;;;15.40;;
15454;SDS011;21057;51.024;7.540;2023-06-04T12:32:01;17.00;;;16.00;;
15454;SDS011;21057;51.024;7.540;2023-06-04T12:34:31;16.10;;;15.20;;
15454;SDS011;21057;51.024;7.540;2023-06-04T12:36:57;15.73;;;14.82;;
15454;SDS011;21057;51.024;7.540;2023-06-04T12:39:24;16.23;;;15.32;;
15454;SDS011;21057;51.024;7.540;2023-06-04T12:41:51;16.38;;;15.48;;
15454;SDS011;21057;51.024;7.540;2023-06-04T12:44:18;16.85;;;15.85;;
15454;SDS011;21057;51.024;7.540;2023-06-04T12:46:46;16.55;;;15.65;;
15454;SDS011;21057;51.024;7.540;2023-06-04T12:49:13;17.17;;;15.95;;
15454;SDS011;21057;51.024;7.540;2023-06-04T12:51:41;17.17;;;16.17;;
15454;SDS011;21057;51.024;7.540;2023-06-04T12:54:08;16.60;;;15.70;;
15454;SDS011;21057;51.024;7.540;2023-06-04T12:56:36;16.80;;;15.60;;
15454;SDS011;21057;51.024;7.540;2023-06-04T12:59:03;16.42;;;15.50;;
15454;SDS011;21057;51.024;7.540;2023-06-04T13:01:30;16.65;;;15.60;;
15454;SDS011;21057;51.024;7.540;2023-06-04T13:03:56;16.77;;;15.80;;
15454;SDS011;21057;51.024;7.540;2023-06-04T13:06:23;16.83;;;15.82;;
15454;SDS011;21057;51.024;7.540;2023-06-04T13:08:52;16.65;;;15.75;;
15454;SDS011;21057;51.024;7.540;2023-06-04T13:11:19;16.85;;;15.85;;
15454;SDS011;21057;51.024;7.540;2023-06-04T13:13:46;16.75;;;15.75;;
15454;SDS011;21057;51.024;7.540;2023-06-04T13:16:13;16.25;;;15.35;;
15454;SDS011;21057;51.024;7.540;2023-06-04T13:18:40;17.02;;;15.93;;
15454;SDS011;21057;51.024;7.540;2023-06-04T13:21:07;16.50;;;15.50;;
15454;SDS011;21057;51.024;7.540;2023-06-04T13:23:34;16.13;;;15.23;;
15454;SDS011;21057;51.024;7.540;2023-06-04T13:26:02;16.33;;;15.43;;
15454;SDS011;21057;51.024;7.540;2023-06-04T13:28:29;16.40;;;15.50;;
15454;SDS011;21057;51.024;7.540;2023-06-04T13:30:56;15.90;;;15.00;;
15454;SDS011;21057;51.024;7.540;2023-06-04T13:33:23;17.15;;;16.23;;
15454;SDS011;21057;51.024;7.540;2023-06-04T13:35:50;16.92;;;15.93;;
15454;SDS011;21057;51.024;7.540;2023-06-04T13:38:18;16.77;;;15.88;;
15454;SDS011;21057;51.024;7.540;2023-06-04T13:40:44;16.52;;;15.63;;
15454;SDS011;21057;51.024;7.540;2023-06-04T13:43:13;17.17;;;16.17;;
15454;SDS011;21057;51.024;7.540;2023-06-04T13:45:40;17.00;;;16.00;;
15454;SDS011;21057;51.024;7.540;2023-06-04T13:48:09;16.73;;;15.82;;
15454;SDS011;21057;51.024;7.540;2023-06-04T13:50:36;15.75;;;14.85;;
15454;SDS011;21057;51.024;7.540;2023-06-04T13:53:03;15.93;;;15.02;;
15454;SDS011;21057;51.024;7.540;2023-06-04T13:55:30;15.60;;;14.80;;
15454;SDS011;21057;51.024;7.540;2023-06-04T13:57:56;16.02;;;15.13;;
15454;SDS011;21057;51.024;7.540;2023-06-04T14:00:25;16.50;;;15.52;;
15454;SDS011;21057;51.024;7.540;2023-06-04T14:02:52;17.60;;;16.60;;
15454;SDS011;21057;51.024;7.540;2023-06-04T14:05:20;16.92;;;16.02;;
15454;SDS011;21057;51.024;7.540;2023-06-04T14:07:47;17.58;;;16.58;;
15454;SDS011;21057;51.024;7.540;2023-06-04T14:10:14;16.92;;;16.02;;
15454;SDS011;21057;51.024;7.540;2023-06-04T14:12:41;16.88;;;15.93;;
15454;SDS011;21057;51.024;7.540;2023-06-04T14:15:09;16.75;;;15.80;;
15454;SDS011;21057;51.024;7.540;2023-06-04T14:17:38;16.60;;;15.63;;
15454;SDS011;21057;51.024;7.540;2023-06-04T14:20:06;16.23;;;15.32;;
15454;SDS011;21057;51.024;7.540;2023-06-04T14:22:33;16.92;;;15.82;;
15454;SDS011;21057;51.024;7.540;2023-06-04T14:25:01;16.88;;;15.88;;
15454;SDS011;21057;51.024;7.540;2023-06-04T14:27:28;16.83;;;15.75;;